createdAt,value
2023-05-20T00:00:01.829Z,18.95
2023-05-20T00:02:30.582Z,18.91
2023-05-20T00:04:59.170Z,18.85
2023-05-20T00:07:27.505Z,18.86
2023-05-20T00:09:55.902Z,18.82
2023-05-20T00:12:24.101Z,18.80
2023-05-20T00:14:55.308Z,18.88
2023-05-20T00:17:25.859Z,18.95
2023-05-20T00:19:54.209Z,19.04
2023-05-20T00:22:23.221Z,19.16
2023-05-20T00:24:51.428Z,18.99
2023-05-20T00:27:19.662Z,19.08
2023-05-20T00:29:48.119Z,18.92
2023-05-20T00:32:17.710Z,18.96
2023-05-20T00:34:45.913Z,19.00
2023-05-20T00:37:14.127Z,18.82
2023-05-20T00:39:42.291Z,18.98
2023-05-20T00:42:10.472Z,18.77
2023-05-20T00:44:38.656Z,18.77
2023-05-20T00:47:06.889Z,18.51
2023-05-20T00:49:36.427Z,18.63
2023-05-20T00:52:04.722Z,18.62
2023-05-20T00:54:33.019Z,18.44
2023-05-20T00:57:03.087Z,18.65
2023-05-20T00:59:31.451Z,18.65
2023-05-20T01:01:59.765Z,18.51
2023-05-20T01:04:28.352Z,18.53
2023-05-20T01:06:58.102Z,18.57
2023-05-20T01:09:26.750Z,18.39
2023-05-20T01:12:02.516Z,18.37
2023-05-20T01:14:34.604Z,18.47
2023-05-20T01:17:09.399Z,18.42
2023-05-20T01:19:40.171Z,18.41
2023-05-20T01:22:13.121Z,18.33
2023-05-20T01:24:44.140Z,18.27
2023-05-20T01:27:13.517Z,18.21
2023-05-20T01:29:46.001Z,18.41
2023-05-20T01:32:18.056Z,18.07
2023-05-20T01:34:46.634Z,18.24
2023-05-20T01:37:16.649Z,18.40
2023-05-20T01:39:48.005Z,18.19
2023-05-20T01:42:16.853Z,18.13
2023-05-20T01:44:45.113Z,18.11
2023-05-20T01:47:13.306Z,18.17
2023-05-20T01:49:43.251Z,18.32
2023-05-20T01:52:12.721Z,18.98
2023-05-20T01:54:40.870Z,18.09
2023-05-20T01:57:10.576Z,18.08
2023-05-20T01:59:39.694Z,18.14
2023-05-20T02:02:08.019Z,17.90
2023-05-20T02:04:36.971Z,17.98
2023-05-20T02:07:05.610Z,18.32
2023-05-20T02:09:34.999Z,18.23
2023-05-20T02:12:03.165Z,18.22
2023-05-20T02:14:32.716Z,18.15
2023-05-20T02:17:00.912Z,18.16
2023-05-20T02:19:29.335Z,18.25
2023-05-20T02:21:58.079Z,18.31
2023-05-20T02:24:26.332Z,18.19
2023-05-20T02:26:57.442Z,18.17
2023-05-20T02:29:25.696Z,18.28
2023-05-20T02:31:55.294Z,18.11
2023-05-20T02:34:23.518Z,17.87
2023-05-20T02:36:51.891Z,17.98
2023-05-20T02:39:20.720Z,18.25
2023-05-20T02:41:48.918Z,18.27
2023-05-20T02:44:17.195Z,18.33
2023-05-20T02:46:45.407Z,18.42
2023-05-20T02:49:15.044Z,18.42
2023-05-20T02:51:43.511Z,18.49
2023-05-20T02:54:12.556Z,18.57
2023-05-20T02:56:40.796Z,18.70
2023-05-20T02:59:09.196Z,18.40
2023-05-20T03:01:37.439Z,18.11
2023-05-20T03:04:05.661Z,18.17
2023-05-20T03:06:35.280Z,18.35
2023-05-20T03:09:03.472Z,18.28
2023-05-20T03:11:31.697Z,18.31
2023-05-20T03:13:59.830Z,18.37
2023-05-20T03:16:28.364Z,18.57
2023-05-20T03:18:56.823Z,18.69
2023-05-20T03:21:25.311Z,18.65
2023-05-20T03:23:55.099Z,18.39
2023-05-20T03:26:23.304Z,18.45
2023-05-20T03:28:52.357Z,18.58
2023-05-20T03:31:21.162Z,18.49
2023-05-20T03:33:49.380Z,18.42
2023-05-20T03:36:17.947Z,18.42
2023-05-20T03:38:46.098Z,19.07
2023-05-20T03:41:15.784Z,18.61
2023-05-20T03:43:43.906Z,18.48
2023-05-20T03:46:12.432Z,18.42
2023-05-20T03:48:41.173Z,18.53
2023-05-20T03:51:09.407Z,18.43
2023-05-20T03:53:37.617Z,18.56
2023-05-20T03:56:06.374Z,18.63
2023-05-20T03:58:38.634Z,18.46
2023-05-20T04:01:07.633Z,18.21
2023-05-20T04:03:36.018Z,18.33
2023-05-20T04:06:05.207Z,18.38
2023-05-20T04:08:34.043Z,18.49
2023-05-20T04:11:03.418Z,18.56
2023-05-20T04:13:31.580Z,18.80
2023-05-20T04:16:02.141Z,19.09
2023-05-20T04:18:31.900Z,19.12
2023-05-20T04:21:01.754Z,18.84
2023-05-20T04:23:30.256Z,18.97
2023-05-20T04:26:02.656Z,19.16
2023-05-20T04:28:32.910Z,19.12
2023-05-20T04:31:04.587Z,19.23
2023-05-20T04:33:37.931Z,19.01
2023-05-20T04:36:08.751Z,19.01
2023-05-20T04:38:37.451Z,19.29
2023-05-20T04:41:07.176Z,19.64
2023-05-20T04:43:35.584Z,19.29
2023-05-20T04:46:06.244Z,19.27
2023-05-20T04:48:35.256Z,19.09
2023-05-20T04:51:03.472Z,19.48
2023-05-20T04:53:34.005Z,19.31
2023-05-20T04:56:03.606Z,19.49
2023-05-20T04:58:33.570Z,19.10
2023-05-20T05:01:02.771Z,19.21
2023-05-20T05:03:34.458Z,19.46
2023-05-20T05:06:04.169Z,19.53
2023-05-20T05:08:32.377Z,19.56
2023-05-20T05:11:00.942Z,19.87
2023-05-20T05:13:29.214Z,19.59
2023-05-20T05:16:00.907Z,20.16
2023-05-20T05:18:32.576Z,20.41
2023-05-20T05:21:02.111Z,20.70
2023-05-20T05:23:30.869Z,20.68
2023-05-20T05:25:59.203Z,20.79
2023-05-20T05:28:27.828Z,20.68
2023-05-20T05:30:56.717Z,20.88
2023-05-20T05:33:25.031Z,20.96
2023-05-20T05:35:56.840Z,21.16
2023-05-20T05:38:25.043Z,20.83
2023-05-20T05:40:53.371Z,20.93
2023-05-20T05:43:22.649Z,20.88
2023-05-20T05:45:52.278Z,20.82
2023-05-20T05:48:20.672Z,20.76
2023-05-20T05:50:49.179Z,20.73
2023-05-20T05:53:20.312Z,20.63
2023-05-20T05:55:50.248Z,20.31
2023-05-20T05:58:19.303Z,20.34
2023-05-20T06:00:47.555Z,20.55
2023-05-20T06:03:16.134Z,20.89
2023-05-20T06:05:46.548Z,21.14
2023-05-20T06:08:14.761Z,21.40
2023-05-20T06:10:48.988Z,21.60
2023-05-20T06:13:17.902Z,22.09
2023-05-20T06:15:46.502Z,21.59
2023-05-20T06:18:14.894Z,21.73
2023-05-20T06:20:43.546Z,22.28
2023-05-20T06:23:12.205Z,22.80
2023-05-20T06:25:53.112Z,22.18
2023-05-20T06:28:22.190Z,22.11
2023-05-20T06:30:50.564Z,22.51
2023-05-20T06:33:20.349Z,22.51
2023-05-20T06:35:48.795Z,21.99
2023-05-20T06:38:16.982Z,22.18
2023-05-20T06:40:45.342Z,22.00
2023-05-20T06:43:15.010Z,22.49
2023-05-20T06:46:03.714Z,21.72
2023-05-20T06:48:46.726Z,22.12
2023-05-20T06:51:15.156Z,23.05
2023-05-20T06:53:46.601Z,23.04
2023-05-20T06:56:15.746Z,22.89
2023-05-20T06:58:46.230Z,22.76
2023-05-20T07:01:17.810Z,22.85
2023-05-20T07:03:47.184Z,23.23
2023-05-20T07:06:15.789Z,22.91
2023-05-20T07:08:44.189Z,23.17
2023-05-20T07:11:12.937Z,23.45
2023-05-20T07:13:41.282Z,23.52
2023-05-20T07:16:11.004Z,23.11
2023-05-20T07:18:42.166Z,23.56
2023-05-20T07:21:10.400Z,23.71
2023-05-20T07:23:52.321Z,23.49
2023-05-20T07:26:20.465Z,23.67
2023-05-20T07:28:48.696Z,23.63
2023-05-20T07:31:18.772Z,23.87
2023-05-20T07:33:47.029Z,24.13
2023-05-20T07:36:15.201Z,24.00
2023-05-20T07:39:00.594Z,24.16
2023-05-20T07:41:34.680Z,24.39
2023-05-20T07:44:03.855Z,24.17
2023-05-20T07:46:34.424Z,24.46
2023-05-20T07:49:02.987Z,24.48
2023-05-20T07:51:31.358Z,24.55
2023-05-20T07:54:00.229Z,24.76
2023-05-20T07:56:28.510Z,24.97
2023-05-20T07:58:58.787Z,25.01
2023-05-20T08:01:30.905Z,25.10
2023-05-20T08:04:01.281Z,24.63
2023-05-20T08:06:30.190Z,24.69
2023-05-20T08:08:59.536Z,24.79
2023-05-20T08:11:32.643Z,24.72
2023-05-20T08:14:02.147Z,24.85
2023-05-20T08:16:34.582Z,24.55
2023-05-20T08:19:04.732Z,25.36
2023-05-20T08:21:33.373Z,25.39
2023-05-20T08:24:01.794Z,25.87
2023-05-20T08:26:30.449Z,26.27
2023-05-20T08:28:58.712Z,26.85
2023-05-20T08:31:27.125Z,26.97
2023-05-20T08:33:55.510Z,26.04
2023-05-20T08:36:25.899Z,26.25
2023-05-20T08:38:54.074Z,26.24
2023-05-20T08:41:22.824Z,26.47
2023-05-20T08:43:51.944Z,26.59
2023-05-20T08:46:21.476Z,26.13
2023-05-20T08:48:50.427Z,26.85
2023-05-20T08:51:23.765Z,27.31
2023-05-20T08:53:53.649Z,26.75
2023-05-20T08:56:22.199Z,27.04
2023-05-20T08:58:50.597Z,27.03
2023-05-20T09:01:19.047Z,27.48
2023-05-20T09:03:47.591Z,27.49
2023-05-20T09:06:20.176Z,27.80
2023-05-20T09:08:51.058Z,27.79
2023-05-20T09:11:21.828Z,28.26
2023-05-20T09:13:51.512Z,28.20
2023-05-20T09:16:19.982Z,28.10
2023-05-20T09:18:48.840Z,27.55
2023-05-20T09:21:17.129Z,27.80
2023-05-20T09:23:49.361Z,27.93
2023-05-20T09:26:22.235Z,28.30
2023-05-20T09:28:50.464Z,28.47
2023-05-20T09:31:18.664Z,28.78
2023-05-20T09:33:46.994Z,29.12
2023-05-20T09:36:16.646Z,29.31
2023-05-20T09:38:45.911Z,29.03
2023-05-20T09:41:15.448Z,28.48
2023-05-20T09:43:46.242Z,28.57
2023-05-20T09:46:15.089Z,28.61
2023-05-20T09:48:43.509Z,28.72
2023-05-20T09:51:13.403Z,28.95
2023-05-20T09:53:42.022Z,28.85
2023-05-20T09:56:10.306Z,29.07
2023-05-20T09:58:39.892Z,29.11
2023-05-20T10:01:09.627Z,29.06
2023-05-20T10:03:38.041Z,29.46
2023-05-20T10:06:27.983Z,29.19
2023-05-20T10:09:14.739Z,28.94
2023-05-20T10:11:50.325Z,28.71
2023-05-20T10:14:30.728Z,29.38
2023-05-20T10:17:10.249Z,29.96
2023-05-20T10:19:38.651Z,29.82
2023-05-20T10:22:08.620Z,30.49
2023-05-20T10:24:38.225Z,30.76
2023-05-20T10:27:09.724Z,30.91
2023-05-20T10:29:45.868Z,30.80
2023-05-20T10:32:25.486Z,30.73
2023-05-20T10:34:55.634Z,31.02
2023-05-20T10:37:29.073Z,30.38
2023-05-20T10:40:11.183Z,29.80
2023-05-20T10:42:39.645Z,30.00
2023-05-20T10:45:09.292Z,29.37
2023-05-20T10:47:43.747Z,28.96
2023-05-20T10:50:30.216Z,29.96
2023-05-20T10:53:06.936Z,30.97
2023-05-20T10:55:38.928Z,31.75
2023-05-20T10:58:07.714Z,31.34
2023-05-20T11:00:37.814Z,30.78
2023-05-20T11:03:08.231Z,30.31
2023-05-20T11:05:36.888Z,29.40
2023-05-20T11:08:13.633Z,29.77
2023-05-20T11:10:48.954Z,30.78
2023-05-20T11:13:17.775Z,30.87
2023-05-20T11:15:46.204Z,30.83
2023-05-20T11:18:17.872Z,30.69
2023-05-20T11:20:47.896Z,30.92
2023-05-20T11:23:16.819Z,31.56
2023-05-20T11:25:44.964Z,30.24
2023-05-20T11:28:14.959Z,30.31
2023-05-20T11:30:43.708Z,30.31
2023-05-20T11:33:13.948Z,30.88
2023-05-20T11:35:47.976Z,31.34
2023-05-20T11:38:16.828Z,31.26
2023-05-20T11:40:50.969Z,31.31
2023-05-20T11:43:20.438Z,31.01
2023-05-20T11:45:49.767Z,31.01
2023-05-20T11:48:17.996Z,30.87
2023-05-20T11:50:49.031Z,31.20
2023-05-20T11:53:18.950Z,31.07
2023-05-20T11:55:48.046Z,30.11
2023-05-20T11:58:20.522Z,30.37
2023-05-20T12:00:53.191Z,30.84
2023-05-20T12:03:27.919Z,30.65
2023-05-20T12:05:57.526Z,30.64
2023-05-20T12:08:25.874Z,30.21
2023-05-20T12:10:54.989Z,30.33
2023-05-20T12:13:23.901Z,30.12
2023-05-20T12:15:52.124Z,29.93
2023-05-20T12:18:20.304Z,29.97
2023-05-20T12:20:48.957Z,30.08
2023-05-20T12:23:18.755Z,30.56
2023-05-20T12:25:49.883Z,30.05
2023-05-20T12:28:18.397Z,29.67
2023-05-20T12:30:46.596Z,29.91
2023-05-20T12:33:14.769Z,29.37
2023-05-20T12:35:44.569Z,29.35
2023-05-20T12:38:12.744Z,29.93
2023-05-20T12:40:42.277Z,29.92
2023-05-20T12:43:10.532Z,29.74
2023-05-20T12:45:38.809Z,29.98
2023-05-20T12:48:08.229Z,30.18
2023-05-20T12:50:36.678Z,30.31
2023-05-20T12:53:05.545Z,30.39
2023-05-20T12:55:36.202Z,29.83
2023-05-20T12:58:05.795Z,29.90
2023-05-20T13:00:34.177Z,30.01
2023-05-20T13:03:03.724Z,30.36
2023-05-20T13:05:32.114Z,30.28
2023-05-20T13:08:00.413Z,30.19
2023-05-20T13:10:29.181Z,30.57
2023-05-20T13:12:58.006Z,31.30
2023-05-20T13:15:28.829Z,31.06
2023-05-20T13:17:57.309Z,31.38
2023-05-20T13:20:25.496Z,31.82
2023-05-20T13:22:53.850Z,32.02
2023-05-20T13:25:22.005Z,31.45
2023-05-20T13:27:50.153Z,31.72
2023-05-20T13:30:18.445Z,31.50
2023-05-20T13:32:48.083Z,31.29
2023-05-20T13:35:16.968Z,31.28
2023-05-20T13:37:45.545Z,30.41
2023-05-20T13:40:14.400Z,30.27
2023-05-20T13:42:42.708Z,29.85
2023-05-20T13:45:11.799Z,29.62
2023-05-20T13:47:39.987Z,29.76
2023-05-20T13:50:11.467Z,29.39
2023-05-20T13:52:39.712Z,29.23
2023-05-20T13:55:09.328Z,28.62
2023-05-20T13:57:37.909Z,28.59
2023-05-20T14:00:07.483Z,28.79
2023-05-20T14:02:37.134Z,29.21
2023-05-20T14:05:06.124Z,30.01
2023-05-20T14:07:35.829Z,30.34
2023-05-20T14:10:04.113Z,30.72
2023-05-20T14:12:32.962Z,31.28
2023-05-20T14:15:01.232Z,31.95
2023-05-20T14:17:29.871Z,31.93
2023-05-20T14:19:58.321Z,31.63
2023-05-20T14:22:26.583Z,32.22
2023-05-20T14:24:56.449Z,32.42
2023-05-20T14:27:24.761Z,32.77
2023-05-20T14:29:52.970Z,32.60
2023-05-20T14:32:21.241Z,31.84
2023-05-20T14:34:49.513Z,31.77
2023-05-20T14:37:17.746Z,31.50
2023-05-20T14:39:46.058Z,31.28
2023-05-20T14:42:15.712Z,30.79
2023-05-20T14:44:43.926Z,30.07
2023-05-20T14:47:12.282Z,29.85
2023-05-20T14:49:42.284Z,29.64
2023-05-20T14:52:10.522Z,29.40
2023-05-20T14:54:43.604Z,29.25
2023-05-20T14:57:11.781Z,29.20
2023-05-20T14:59:41.647Z,28.89
2023-05-20T15:02:09.902Z,28.94
2023-05-20T15:04:38.146Z,28.79
2023-05-20T15:07:06.898Z,28.98
2023-05-20T15:09:35.233Z,28.86
2023-05-20T15:12:03.408Z,28.78
2023-05-20T15:14:31.680Z,28.80
2023-05-20T15:17:01.354Z,28.96
2023-05-20T15:19:29.759Z,29.05
2023-05-20T15:21:58.038Z,29.13
2023-05-20T15:24:26.265Z,29.05
2023-05-20T15:26:55.143Z,28.97
2023-05-20T15:29:23.566Z,28.95
2023-05-20T15:31:51.953Z,28.79
2023-05-20T15:34:21.528Z,28.81
2023-05-20T15:36:49.683Z,29.07
2023-05-20T15:39:18.174Z,29.24
2023-05-20T15:41:50.102Z,29.42
2023-05-20T15:44:18.328Z,29.44
2023-05-20T15:46:47.304Z,29.57
2023-05-20T15:49:15.768Z,29.27
2023-05-20T15:51:55.574Z,29.38
2023-05-20T15:54:30.377Z,29.44
2023-05-20T15:56:59.166Z,29.44
2023-05-20T15:59:27.386Z,28.95
2023-05-20T16:01:55.798Z,29.06
2023-05-20T16:04:24.382Z,29.09
2023-05-20T16:06:56.043Z,28.68
2023-05-20T16:09:25.709Z,28.33
2023-05-20T16:11:53.908Z,28.43
2023-05-20T16:14:22.108Z,28.27
2023-05-20T16:16:50.363Z,28.12
2023-05-20T16:19:18.654Z,27.71
2023-05-20T16:21:46.806Z,26.97
2023-05-20T16:24:16.927Z,26.68
2023-05-20T16:26:45.196Z,25.99
2023-05-20T16:29:16.264Z,25.53
2023-05-20T16:31:46.822Z,25.09
2023-05-20T16:34:16.491Z,25.46
2023-05-20T16:36:46.411Z,25.23
2023-05-20T16:39:16.570Z,25.54
2023-05-20T16:41:44.902Z,25.65
2023-05-20T16:44:13.057Z,25.74
2023-05-20T16:46:41.368Z,25.64
2023-05-20T16:49:09.680Z,25.38
2023-05-20T16:51:38.534Z,24.94
2023-05-20T16:54:06.767Z,25.22
2023-05-20T16:56:37.121Z,25.46
2023-05-20T16:59:06.312Z,25.53
2023-05-20T17:01:34.545Z,25.29
2023-05-20T17:04:03.014Z,24.75
2023-05-20T17:06:34.408Z,24.17
2023-05-20T17:09:04.348Z,23.62
2023-05-20T17:11:32.616Z,23.39
2023-05-20T17:14:03.228Z,23.18
2023-05-20T17:16:31.687Z,22.90
2023-05-20T17:19:00.290Z,22.74
2023-05-20T17:21:28.879Z,22.88
2023-05-20T17:23:57.623Z,22.88
2023-05-20T17:26:26.450Z,23.07
2023-05-20T17:28:55.074Z,22.85
2023-05-20T17:31:24.978Z,23.06
2023-05-20T17:33:53.870Z,23.35
2023-05-20T17:36:23.264Z,23.47
2023-05-20T17:38:52.582Z,23.50
2023-05-20T17:41:22.362Z,23.52
2023-05-20T17:43:51.372Z,23.58
2023-05-20T17:46:20.825Z,23.38
2023-05-20T17:48:51.628Z,23.29
2023-05-20T17:51:21.558Z,23.11
2023-05-20T17:53:50.729Z,23.35
2023-05-20T17:56:19.979Z,23.41
2023-05-20T17:58:49.555Z,23.32
2023-05-20T18:01:19.286Z,23.87
2023-05-20T18:03:48.682Z,23.32
2023-05-20T18:06:20.773Z,23.62
2023-05-20T18:08:49.979Z,23.28
2023-05-20T18:11:19.210Z,23.07
2023-05-20T18:13:48.459Z,23.45
2023-05-20T18:16:17.706Z,23.26
2023-05-20T18:18:47.311Z,23.05
2023-05-20T18:21:16.570Z,23.41
2023-05-20T18:23:47.187Z,23.46
2023-05-20T18:26:16.533Z,23.08
2023-05-20T18:28:45.717Z,22.78
2023-05-20T18:31:14.817Z,22.46
2023-05-20T18:33:43.909Z,21.50
2023-05-20T18:36:13.139Z,21.75
2023-05-20T18:38:42.339Z,21.82
2023-05-20T18:41:12.751Z,21.40
2023-05-20T18:43:41.812Z,21.59
2023-05-20T18:46:11.264Z,22.10
2023-05-20T18:48:40.501Z,21.59
2023-05-20T18:51:09.644Z,21.32
2023-05-20T18:53:38.854Z,21.54
2023-05-20T18:56:09.745Z,21.78
2023-05-20T18:58:40.394Z,21.28
2023-05-20T19:01:09.780Z,21.88
2023-05-20T19:03:39.274Z,22.01
2023-05-20T19:06:08.565Z,21.61
2023-05-20T19:08:37.912Z,21.50
2023-05-20T19:11:07.401Z,21.71
2023-05-20T19:13:36.710Z,21.84
2023-05-20T19:16:07.814Z,21.55
2023-05-20T19:18:37.114Z,21.61
2023-05-20T19:21:09.364Z,21.73
2023-05-20T19:23:38.652Z,21.45
2023-05-20T19:26:09.104Z,21.53
2023-05-20T19:28:38.419Z,21.68
2023-05-20T19:31:09.036Z,21.51
2023-05-20T19:33:38.394Z,21.47
2023-05-20T19:36:07.895Z,21.54
2023-05-20T19:38:37.112Z,21.76
2023-05-20T19:41:06.351Z,21.87
2023-05-20T19:43:35.902Z,21.79
2023-05-20T19:46:07.161Z,21.80
2023-05-20T19:48:37.768Z,21.79
2023-05-20T19:51:08.509Z,21.72
2023-05-20T19:53:38.718Z,22.02
2023-05-20T19:56:09.067Z,21.91
2023-05-20T19:58:38.397Z,21.56
2023-05-20T20:01:07.749Z,21.71
2023-05-20T20:03:38.803Z,21.64
2023-05-20T20:06:08.166Z,21.53
2023-05-20T20:08:38.581Z,21.51
2023-05-20T20:11:08.496Z,21.71
2023-05-20T20:13:37.736Z,21.82
2023-05-20T20:16:07.613Z,21.65
2023-05-20T20:18:38.724Z,21.24
2023-05-20T20:21:10.018Z,20.86
2023-05-20T20:23:39.555Z,20.98
2023-05-20T20:26:10.047Z,21.20
2023-05-20T20:28:39.184Z,21.67
2023-05-20T20:31:08.378Z,21.73
2023-05-20T20:33:38.961Z,21.36
2023-05-20T20:36:09.604Z,21.09
2023-05-20T20:38:39.297Z,21.03
2023-05-20T20:41:10.178Z,21.05
2023-05-20T20:43:39.659Z,20.36
2023-05-20T20:46:09.946Z,20.63
2023-05-20T20:48:41.982Z,20.42
2023-05-20T20:51:10.963Z,20.04
2023-05-20T20:53:41.531Z,19.93
2023-05-20T20:56:10.406Z,19.93
2023-05-20T20:58:39.869Z,20.11
2023-05-20T21:01:10.113Z,19.86
2023-05-20T21:03:40.671Z,19.73
2023-05-20T21:06:09.062Z,20.03
2023-05-20T21:08:37.376Z,20.24
2023-05-20T21:11:06.455Z,20.19
2023-05-20T21:13:34.783Z,20.01
2023-05-20T21:16:03.007Z,19.90
2023-05-20T21:18:31.149Z,20.40
2023-05-20T21:21:00.907Z,20.60
2023-05-20T21:23:29.126Z,20.19
2023-05-20T21:25:57.306Z,20.24
2023-05-20T21:28:25.436Z,20.15
2023-05-20T21:30:53.663Z,20.04
2023-05-20T21:33:21.938Z,19.71
2023-05-20T21:35:50.137Z,19.65
2023-05-20T21:38:19.820Z,19.77
2023-05-20T21:40:47.981Z,19.97
2023-05-20T21:43:16.597Z,19.70
2023-05-20T21:45:45.766Z,19.74
2023-05-20T21:48:14.407Z,19.87
2023-05-20T21:50:43.272Z,19.84
2023-05-20T21:53:11.426Z,20.09
2023-05-20T21:55:41.464Z,19.43
2023-05-20T21:58:09.636Z,19.75
2023-05-20T22:00:37.800Z,19.63
2023-05-20T22:03:06.190Z,19.30
2023-05-20T22:05:35.145Z,19.54
2023-05-20T22:08:03.489Z,19.51
2023-05-20T22:10:33.827Z,19.49
2023-05-20T22:13:03.452Z,19.26
2023-05-20T22:15:31.881Z,19.10
2023-05-20T22:18:00.119Z,19.01
2023-05-20T22:20:28.740Z,18.98
2023-05-20T22:22:57.008Z,19.13
2023-05-20T22:25:25.215Z,19.16
2023-05-20T22:27:53.586Z,18.99
2023-05-20T22:30:23.496Z,18.96
2023-05-20T22:32:51.694Z,19.10
2023-05-20T22:35:19.893Z,18.89
2023-05-20T22:37:48.318Z,18.46
2023-05-20T22:40:16.716Z,18.66
2023-05-20T22:42:44.885Z,18.69
2023-05-20T22:45:13.103Z,18.65
2023-05-20T22:47:42.852Z,18.43
2023-05-20T22:50:13.549Z,18.65
2023-05-20T22:52:41.818Z,18.58
2023-05-20T22:55:11.642Z,18.79
2023-05-20T22:57:39.802Z,18.75
2023-05-20T23:00:10.091Z,18.64
2023-05-20T23:02:41.601Z,19.06
2023-05-20T23:05:12.418Z,18.57
2023-05-20T23:07:40.661Z,19.06
2023-05-20T23:10:09.606Z,18.62
2023-05-20T23:12:37.807Z,18.22
2023-05-20T23:15:06.799Z,18.01
2023-05-20T23:17:35.159Z,18.06
2023-05-20T23:20:05.492Z,18.34
2023-05-20T23:22:35.050Z,18.34
2023-05-20T23:25:03.448Z,18.41
2023-05-20T23:27:31.755Z,18.08
2023-05-20T23:29:59.985Z,17.81
2023-05-20T23:32:28.208Z,17.80
2023-05-20T23:34:56.372Z,17.80
2023-05-20T23:37:24.486Z,17.77
2023-05-20T23:39:54.030Z,17.98
2023-05-20T23:42:22.175Z,17.89
2023-05-20T23:44:50.439Z,17.87
2023-05-20T23:47:18.707Z,17.82
2023-05-20T23:49:49.250Z,17.75
2023-05-20T23:52:17.700Z,17.98
2023-05-20T23:54:45.864Z,17.77
2023-05-20T23:57:16.155Z,17.88
2023-05-20T23:59:44.295Z,18.07
